createdAt,value
2019-02-24T02:06:31.438Z,102901.45
2019-02-24T02:07:34.092Z,102913.00
2019-02-24T02:09:20.708Z,102896.31
2019-02-24T02:10:23.981Z,102901.48
2019-02-24T02:11:27.250Z,102893.33
2019-02-24T02:12:30.566Z,102897.19
2019-02-24T02:13:33.835Z,102886.95
2019-02-24T02:14:37.289Z,102883.28
2019-02-24T02:15:40.558Z,102881.70
2019-02-24T02:16:44.262Z,102874.16
2019-02-24T02:17:55.175Z,102873.59
2019-02-24T02:18:58.488Z,102870.36
2019-02-24T02:20:01.804Z,102863.80
2019-02-24T02:21:05.069Z,102873.17
2019-02-24T02:22:08.337Z,102865.91
2019-02-24T02:23:11.604Z,102866.39
2019-02-24T02:24:14.968Z,102868.23
2019-02-24T02:25:18.235Z,102868.99
2019-02-24T02:26:21.601Z,102870.78
2019-02-24T02:27:24.994Z,102864.93
2019-02-24T02:28:28.476Z,102864.34
2019-02-24T02:29:31.795Z,102860.17
2019-02-24T02:30:35.069Z,102862.23
2019-02-24T02:31:38.333Z,102858.19
2019-02-24T02:32:42.165Z,102853.53
2019-02-24T02:33:45.507Z,102857.30
2019-02-24T02:34:48.930Z,102846.36
2019-02-24T02:35:52.195Z,102843.23
2019-02-24T02:36:55.563Z,102839.67
2019-02-24T02:37:58.829Z,102824.32
2019-02-24T02:39:02.104Z,102839.17
2019-02-24T02:40:10.714Z,102832.31
2019-02-24T02:41:14.035Z,102828.91
2019-02-24T02:42:17.308Z,102823.84
2019-02-24T02:43:20.665Z,102822.61
2019-02-24T02:44:23.969Z,102826.16
2019-02-24T02:45:27.275Z,102822.67
2019-02-24T02:46:30.551Z,102821.50
2019-02-24T02:47:33.835Z,102822.53
2019-02-24T02:48:37.108Z,102818.45
2019-02-24T02:49:40.402Z,102814.31
2019-02-24T02:50:43.705Z,102813.19
2019-02-24T02:51:46.958Z,102812.69
2019-02-24T02:52:50.248Z,102832.28
2019-02-24T02:53:53.633Z,102824.77
2019-02-24T02:54:56.903Z,102812.56
2019-02-24T02:56:00.447Z,102813.33
2019-02-24T02:57:03.727Z,102810.94
2019-02-24T02:58:07.065Z,102806.41
2019-02-24T02:59:10.351Z,102803.34
2019-02-24T03:00:19.877Z,102799.29
2019-02-24T03:01:23.159Z,102790.92
2019-02-24T03:02:26.428Z,102796.13
2019-02-24T03:03:29.691Z,102795.53
2019-02-24T03:04:32.961Z,102784.41
2019-02-24T03:05:36.227Z,102793.16
